sensor_id;sensor_type;location;lat;lon;timestamp;P1;durP1;ratioP1;P2;durP2;ratioP2
11655;SDS011;5884;43.618;1.438;2022-08-01T04:46:38;6.10;;;3.37;;
11655;SDS011;5884;43.618;1.438;2022-08-01T04:49:07;5.67;;;3.83;;
11655;SDS011;5884;43.618;1.438;2022-08-01T04:51:35;4.03;;;3.50;;
11655;SDS011;5884;43.618;1.438;2022-08-01T04:54:02;5.57;;;3.63;;
11655;SDS011;5884;43.618;1.438;2022-08-01T04:56:29;6.70;;;3.60;;
11655;SDS011;5884;43.618;1.438;2022-08-01T04:58:59;4.57;;;3.77;;
11655;SDS011;5884;43.618;1.438;2022-08-01T05:01:49;5.27;;;3.40;;
11655;SDS011;5884;43.618;1.438;2022-08-01T05:04:16;6.33;;;3.83;;
11655;SDS011;5884;43.618;1.438;2022-08-01T05:06:43;6.33;;;3.70;;
11655;SDS011;5884;43.618;1.438;2022-08-01T05:09:11;9.13;;;3.63;;
11655;SDS011;5884;43.618;1.438;2022-08-01T05:11:38;5.37;;;3.47;;
11655;SDS011;5884;43.618;1.438;2022-08-01T05:14:05;5.63;;;3.70;;
11655;SDS011;5884;43.618;1.438;2022-08-01T05:16:32;5.30;;;3.50;;
11655;SDS011;5884;43.618;1.438;2022-08-01T05:19:01;7.87;;;4.10;;
11655;SDS011;5884;43.618;1.438;2022-08-01T05:21:28;4.73;;;3.70;;
11655;SDS011;5884;43.618;1.438;2022-08-01T05:23:55;5.33;;;3.57;;
11655;SDS011;5884;43.618;1.438;2022-08-01T05:26:23;4.33;;;3.57;;
11655;SDS011;5884;43.618;1.438;2022-08-01T05:28:50;6.70;;;3.80;;
11655;SDS011;5884;43.618;1.438;2022-08-01T05:31:17;7.57;;;3.57;;
11655;SDS011;5884;43.618;1.438;2022-08-01T05:33:45;8.27;;;4.07;;
11655;SDS011;5884;43.618;1.438;2022-08-01T05:36:13;9.50;;;3.93;;
11655;SDS011;5884;43.618;1.438;2022-08-01T05:38:40;8.50;;;4.40;;
11655;SDS011;5884;43.618;1.438;2022-08-01T05:41:08;8.13;;;3.97;;
11655;SDS011;5884;43.618;1.438;2022-08-01T05:43:36;5.03;;;4.27;;
11655;SDS011;5884;43.618;1.438;2022-08-01T05:46:03;11.80;;;5.30;;
11655;SDS011;5884;43.618;1.438;2022-08-01T05:48:30;8.13;;;4.77;;
11655;SDS011;5884;43.618;1.438;2022-08-01T05:50:58;14.60;;;5.07;;
11655;SDS011;5884;43.618;1.438;2022-08-01T05:53:26;16.07;;;5.43;;
11655;SDS011;5884;43.618;1.438;2022-08-01T05:55:54;10.00;;;5.70;;
11655;SDS011;5884;43.618;1.438;2022-08-01T05:58:21;10.60;;;5.10;;
11655;SDS011;5884;43.618;1.438;2022-08-01T06:00:49;10.00;;;5.90;;
11655;SDS011;5884;43.618;1.438;2022-08-01T06:03:16;7.50;;;5.80;;
11655;SDS011;5884;43.618;1.438;2022-08-01T06:05:44;9.27;;;5.80;;
11655;SDS011;5884;43.618;1.438;2022-08-01T06:08:11;13.27;;;5.87;;
11655;SDS011;5884;43.618;1.438;2022-08-01T06:10:39;9.20;;;5.63;;
11655;SDS011;5884;43.618;1.438;2022-08-01T06:13:07;10.83;;;5.60;;
11655;SDS011;5884;43.618;1.438;2022-08-01T06:15:34;10.40;;;5.60;;
11655;SDS011;5884;43.618;1.438;2022-08-01T06:18:02;11.07;;;6.50;;
11655;SDS011;5884;43.618;1.438;2022-08-01T06:20:30;8.07;;;6.00;;
11655;SDS011;5884;43.618;1.438;2022-08-01T06:22:57;9.90;;;6.20;;
11655;SDS011;5884;43.618;1.438;2022-08-01T06:25:24;10.03;;;5.80;;
11655;SDS011;5884;43.618;1.438;2022-08-01T06:27:53;11.57;;;6.50;;
11655;SDS011;5884;43.618;1.438;2022-08-01T06:30:20;9.27;;;6.13;;
11655;SDS011;5884;43.618;1.438;2022-08-01T06:32:47;10.17;;;6.60;;
11655;SDS011;5884;43.618;1.438;2022-08-01T06:35:15;8.53;;;6.27;;
11655;SDS011;5884;43.618;1.438;2022-08-01T06:37:42;9.20;;;6.33;;
11655;SDS011;5884;43.618;1.438;2022-08-01T06:40:12;8.97;;;6.87;;
11655;SDS011;5884;43.618;1.438;2022-08-01T06:42:39;8.77;;;6.40;;
11655;SDS011;5884;43.618;1.438;2022-08-01T06:45:09;13.93;;;6.87;;
11655;SDS011;5884;43.618;1.438;2022-08-01T06:47:38;10.17;;;6.37;;
11655;SDS011;5884;43.618;1.438;2022-08-01T06:50:07;6.57;;;5.87;;
11655;SDS011;5884;43.618;1.438;2022-08-01T06:52:35;8.77;;;6.47;;
11655;SDS011;5884;43.618;1.438;2022-08-01T06:55:03;11.10;;;6.40;;
11655;SDS011;5884;43.618;1.438;2022-08-01T06:57:32;10.13;;;6.23;;
11655;SDS011;5884;43.618;1.438;2022-08-01T07:00:00;8.80;;;6.13;;
11655;SDS011;5884;43.618;1.438;2022-08-01T07:02:32;8.27;;;6.60;;
11655;SDS011;5884;43.618;1.438;2022-08-01T07:04:59;9.87;;;7.20;;
11655;SDS011;5884;43.618;1.438;2022-08-01T07:07:26;8.60;;;6.80;;
11655;SDS011;5884;43.618;1.438;2022-08-01T07:09:53;9.43;;;6.93;;
11655;SDS011;5884;43.618;1.438;2022-08-01T07:12:21;9.00;;;7.03;;
11655;SDS011;5884;43.618;1.438;2022-08-01T07:14:48;7.57;;;6.23;;
11655;SDS011;5884;43.618;1.438;2022-08-01T07:17:15;12.03;;;6.67;;
11655;SDS011;5884;43.618;1.438;2022-08-01T07:19:46;9.13;;;6.40;;
11655;SDS011;5884;43.618;1.438;2022-08-01T07:22:14;8.77;;;6.37;;
11655;SDS011;5884;43.618;1.438;2022-08-01T07:24:41;9.07;;;5.90;;
11655;SDS011;5884;43.618;1.438;2022-08-01T07:27:09;10.77;;;7.07;;
11655;SDS011;5884;43.618;1.438;2022-08-01T07:29:36;8.47;;;6.13;;
11655;SDS011;5884;43.618;1.438;2022-08-01T07:32:03;7.30;;;6.40;;
11655;SDS011;5884;43.618;1.438;2022-08-01T07:34:32;10.17;;;6.73;;
11655;SDS011;5884;43.618;1.438;2022-08-01T07:37:00;8.53;;;6.40;;
11655;SDS011;5884;43.618;1.438;2022-08-01T07:39:27;8.43;;;6.23;;
11655;SDS011;5884;43.618;1.438;2022-08-01T07:41:55;9.53;;;6.50;;
11655;SDS011;5884;43.618;1.438;2022-08-01T07:44:22;13.90;;;6.60;;
11655;SDS011;5884;43.618;1.438;2022-08-01T07:46:50;9.37;;;6.10;;
11655;SDS011;5884;43.618;1.438;2022-08-01T07:49:17;10.10;;;5.87;;
11655;SDS011;5884;43.618;1.438;2022-08-01T07:51:44;7.80;;;5.87;;
11655;SDS011;5884;43.618;1.438;2022-08-01T07:54:13;10.27;;;5.90;;
11655;SDS011;5884;43.618;1.438;2022-08-01T07:56:40;10.00;;;6.40;;
11655;SDS011;5884;43.618;1.438;2022-08-01T07:59:07;9.87;;;5.90;;
11655;SDS011;5884;43.618;1.438;2022-08-01T08:01:34;9.23;;;5.87;;
11655;SDS011;5884;43.618;1.438;2022-08-01T08:04:02;6.83;;;5.80;;
11655;SDS011;5884;43.618;1.438;2022-08-01T08:06:29;9.50;;;5.93;;
11655;SDS011;5884;43.618;1.438;2022-08-01T08:08:56;11.50;;;5.60;;
11655;SDS011;5884;43.618;1.438;2022-08-01T08:11:25;8.27;;;6.33;;
11655;SDS011;5884;43.618;1.438;2022-08-01T08:13:52;7.97;;;6.20;;
11655;SDS011;5884;43.618;1.438;2022-08-01T08:16:19;9.13;;;5.67;;
11655;SDS011;5884;43.618;1.438;2022-08-01T08:18:47;14.53;;;6.03;;
11655;SDS011;5884;43.618;1.438;2022-08-01T08:21:14;8.47;;;5.53;;
11655;SDS011;5884;43.618;1.438;2022-08-01T08:23:41;8.00;;;5.40;;
11655;SDS011;5884;43.618;1.438;2022-08-01T08:26:29;9.37;;;5.30;;
11655;SDS011;5884;43.618;1.438;2022-08-01T08:28:56;11.40;;;5.57;;
11655;SDS011;5884;43.618;1.438;2022-08-01T08:31:24;6.33;;;5.30;;
11655;SDS011;5884;43.618;1.438;2022-08-01T08:33:51;10.03;;;5.70;;
11655;SDS011;5884;43.618;1.438;2022-08-01T08:36:18;93.63;;;13.37;;
11655;SDS011;5884;43.618;1.438;2022-08-01T08:38:46;14.30;;;5.67;;
11655;SDS011;5884;43.618;1.438;2022-08-01T08:41:13;14.43;;;5.57;;
11655;SDS011;5884;43.618;1.438;2022-08-01T08:43:42;9.00;;;5.57;;
11655;SDS011;5884;43.618;1.438;2022-08-01T08:46:09;8.80;;;5.10;;
11655;SDS011;5884;43.618;1.438;2022-08-01T08:48:39;12.07;;;5.40;;
11655;SDS011;5884;43.618;1.438;2022-08-01T08:51:07;10.77;;;5.20;;
11655;SDS011;5884;43.618;1.438;2022-08-01T08:53:36;6.00;;;5.40;;
11655;SDS011;5884;43.618;1.438;2022-08-01T08:56:05;7.70;;;5.40;;
11655;SDS011;5884;43.618;1.438;2022-08-01T08:58:34;10.53;;;5.03;;
11655;SDS011;5884;43.618;1.438;2022-08-01T09:01:06;8.07;;;5.53;;
11655;SDS011;5884;43.618;1.438;2022-08-01T09:03:34;8.27;;;4.83;;
11655;SDS011;5884;43.618;1.438;2022-08-01T09:06:01;12.37;;;5.40;;
11655;SDS011;5884;43.618;1.438;2022-08-01T09:08:28;5.67;;;4.83;;
11655;SDS011;5884;43.618;1.438;2022-08-01T09:10:56;6.40;;;4.67;;
11655;SDS011;5884;43.618;1.438;2022-08-01T09:13:23;6.03;;;5.20;;
11655;SDS011;5884;43.618;1.438;2022-08-01T09:15:51;9.57;;;5.00;;
11655;SDS011;5884;43.618;1.438;2022-08-01T09:18:28;7.60;;;4.90;;
11655;SDS011;5884;43.618;1.438;2022-08-01T09:23:50;5.97;;;4.93;;
11655;SDS011;5884;43.618;1.438;2022-08-01T09:26:27;5.07;;;4.57;;
11655;SDS011;5884;43.618;1.438;2022-08-01T09:28:57;8.47;;;4.97;;
11655;SDS011;5884;43.618;1.438;2022-08-01T09:31:26;8.70;;;4.13;;
11655;SDS011;5884;43.618;1.438;2022-08-01T09:33:56;7.83;;;5.20;;
11655;SDS011;5884;43.618;1.438;2022-08-01T09:36:43;6.73;;;5.00;;
11655;SDS011;5884;43.618;1.438;2022-08-01T09:39:16;8.30;;;5.07;;
11655;SDS011;5884;43.618;1.438;2022-08-01T09:41:45;7.60;;;5.23;;
11655;SDS011;5884;43.618;1.438;2022-08-01T09:44:14;6.10;;;4.83;;
11655;SDS011;5884;43.618;1.438;2022-08-01T09:46:53;6.20;;;4.90;;
11655;SDS011;5884;43.618;1.438;2022-08-01T09:49:30;7.33;;;4.80;;
11655;SDS011;5884;43.618;1.438;2022-08-01T09:51:59;7.00;;;4.90;;
11655;SDS011;5884;43.618;1.438;2022-08-01T09:54:37;6.17;;;4.33;;
11655;SDS011;5884;43.618;1.438;2022-08-01T09:57:13;5.27;;;4.70;;
11655;SDS011;5884;43.618;1.438;2022-08-01T09:59:45;5.27;;;4.67;;
11655;SDS011;5884;43.618;1.438;2022-08-01T10:02:14;9.13;;;4.70;;
11655;SDS011;5884;43.618;1.438;2022-08-01T10:04:56;5.93;;;5.10;;
11655;SDS011;5884;43.618;1.438;2022-08-01T10:07:24;6.82;;;4.75;;
11655;SDS011;5884;43.618;1.438;2022-08-01T10:09:54;8.23;;;4.63;;
11655;SDS011;5884;43.618;1.438;2022-08-01T10:12:22;7.05;;;4.88;;
11655;SDS011;5884;43.618;1.438;2022-08-01T10:14:50;7.55;;;4.88;;
11655;SDS011;5884;43.618;1.438;2022-08-01T10:17:20;5.22;;;4.70;;
11655;SDS011;5884;43.618;1.438;2022-08-01T10:19:50;9.45;;;5.07;;
11655;SDS011;5884;43.618;1.438;2022-08-01T10:22:22;7.47;;;4.82;;
11655;SDS011;5884;43.618;1.438;2022-08-01T10:24:53;5.53;;;4.90;;
11655;SDS011;5884;43.618;1.438;2022-08-01T10:27:24;6.65;;;4.75;;
11655;SDS011;5884;43.618;1.438;2022-08-01T10:29:54;5.15;;;4.57;;
11655;SDS011;5884;43.618;1.438;2022-08-01T10:32:28;7.07;;;5.05;;
11655;SDS011;5884;43.618;1.438;2022-08-01T10:34:55;10.23;;;4.88;;
11655;SDS011;5884;43.618;1.438;2022-08-01T10:37:25;6.72;;;5.60;;
11655;SDS011;5884;43.618;1.438;2022-08-01T10:39:52;5.57;;;4.97;;
11655;SDS011;5884;43.618;1.438;2022-08-01T10:42:20;8.93;;;4.70;;
11655;SDS011;5884;43.618;1.438;2022-08-01T10:44:48;7.63;;;4.80;;
11655;SDS011;5884;43.618;1.438;2022-08-01T10:47:18;11.50;;;5.47;;
11655;SDS011;5884;43.618;1.438;2022-08-01T10:49:51;8.10;;;5.10;;
11655;SDS011;5884;43.618;1.438;2022-08-01T10:52:31;8.48;;;5.20;;
11655;SDS011;5884;43.618;1.438;2022-08-01T10:55:01;7.13;;;4.68;;
11655;SDS011;5884;43.618;1.438;2022-08-01T10:57:40;7.43;;;5.35;;
11655;SDS011;5884;43.618;1.438;2022-08-01T11:00:10;7.05;;;5.38;;
11655;SDS011;5884;43.618;1.438;2022-08-01T11:02:44;6.28;;;5.28;;
11655;SDS011;5884;43.618;1.438;2022-08-01T11:05:25;8.55;;;5.22;;
11655;SDS011;5884;43.618;1.438;2022-08-01T11:07:56;10.00;;;4.90;;
11655;SDS011;5884;43.618;1.438;2022-08-01T11:10:29;6.85;;;6.05;;
11655;SDS011;5884;43.618;1.438;2022-08-01T11:13:03;7.97;;;5.00;;
11655;SDS011;5884;43.618;1.438;2022-08-01T11:15:33;8.00;;;5.50;;
11655;SDS011;5884;43.618;1.438;2022-08-01T11:18:01;7.80;;;6.10;;
11655;SDS011;5884;43.618;1.438;2022-08-01T11:20:31;6.85;;;5.43;;
11655;SDS011;5884;43.618;1.438;2022-08-01T11:26:13;9.45;;;5.43;;
11655;SDS011;5884;43.618;1.438;2022-08-01T11:28:42;7.97;;;4.88;;
11655;SDS011;5884;43.618;1.438;2022-08-01T11:31:27;7.07;;;5.25;;
11655;SDS011;5884;43.618;1.438;2022-08-01T11:33:56;7.35;;;5.13;;
11655;SDS011;5884;43.618;1.438;2022-08-01T11:36:25;5.85;;;5.25;;
11655;SDS011;5884;43.618;1.438;2022-08-01T11:41:45;8.50;;;5.07;;
11655;SDS011;5884;43.618;1.438;2022-08-01T11:44:15;5.85;;;5.32;;
11655;SDS011;5884;43.618;1.438;2022-08-01T11:46:45;7.60;;;5.55;;
11655;SDS011;5884;43.618;1.438;2022-08-01T11:49:26;8.95;;;5.35;;
11655;SDS011;5884;43.618;1.438;2022-08-01T11:52:00;6.22;;;5.10;;
11655;SDS011;5884;43.618;1.438;2022-08-01T11:54:33;5.40;;;4.88;;
11655;SDS011;5884;43.618;1.438;2022-08-01T11:57:03;6.10;;;4.38;;
11655;SDS011;5884;43.618;1.438;2022-08-01T11:59:37;7.95;;;4.68;;
11655;SDS011;5884;43.618;1.438;2022-08-01T12:02:14;8.52;;;4.78;;
11655;SDS011;5884;43.618;1.438;2022-08-01T12:04:48;6.55;;;4.13;;
11655;SDS011;5884;43.618;1.438;2022-08-01T12:07:18;6.85;;;3.70;;
11655;SDS011;5884;43.618;1.438;2022-08-01T12:09:47;6.93;;;4.63;;
11655;SDS011;5884;43.618;1.438;2022-08-01T12:12:15;8.48;;;4.00;;
11655;SDS011;5884;43.618;1.438;2022-08-01T12:14:44;6.75;;;4.65;;
11655;SDS011;5884;43.618;1.438;2022-08-01T12:17:20;8.68;;;4.45;;
11655;SDS011;5884;43.618;1.438;2022-08-01T12:19:57;6.70;;;4.10;;
11655;SDS011;5884;43.618;1.438;2022-08-01T12:22:25;5.32;;;3.72;;
11655;SDS011;5884;43.618;1.438;2022-08-01T12:24:53;5.00;;;3.72;;
11655;SDS011;5884;43.618;1.438;2022-08-01T12:27:25;6.50;;;4.22;;
11655;SDS011;5884;43.618;1.438;2022-08-01T12:29:55;4.80;;;3.70;;
11655;SDS011;5884;43.618;1.438;2022-08-01T12:32:25;6.18;;;3.80;;
11655;SDS011;5884;43.618;1.438;2022-08-01T12:34:56;4.47;;;3.30;;
11655;SDS011;5884;43.618;1.438;2022-08-01T12:37:28;5.35;;;3.53;;
11655;SDS011;5884;43.618;1.438;2022-08-01T12:39:58;3.55;;;3.25;;
11655;SDS011;5884;43.618;1.438;2022-08-01T12:42:25;6.88;;;3.63;;
11655;SDS011;5884;43.618;1.438;2022-08-01T12:44:53;6.25;;;4.03;;
11655;SDS011;5884;43.618;1.438;2022-08-01T12:47:21;6.80;;;3.72;;
11655;SDS011;5884;43.618;1.438;2022-08-01T12:49:50;6.03;;;3.83;;
11655;SDS011;5884;43.618;1.438;2022-08-01T12:52:18;22.80;;;5.50;;
11655;SDS011;5884;43.618;1.438;2022-08-01T12:55:00;7.57;;;3.55;;
11655;SDS011;5884;43.618;1.438;2022-08-01T12:57:35;5.90;;;3.88;;
11655;SDS011;5884;43.618;1.438;2022-08-01T13:00:11;5.50;;;3.00;;
11655;SDS011;5884;43.618;1.438;2022-08-01T13:02:42;7.10;;;3.67;;
11655;SDS011;5884;43.618;1.438;2022-08-01T13:05:10;7.03;;;3.08;;
11655;SDS011;5884;43.618;1.438;2022-08-01T13:07:40;5.57;;;3.00;;
11655;SDS011;5884;43.618;1.438;2022-08-01T13:10:12;4.30;;;3.35;;
11655;SDS011;5884;43.618;1.438;2022-08-01T13:12:49;6.93;;;2.78;;
11655;SDS011;5884;43.618;1.438;2022-08-01T13:15:21;4.15;;;2.70;;
11655;SDS011;5884;43.618;1.438;2022-08-01T13:17:52;4.30;;;2.70;;
11655;SDS011;5884;43.618;1.438;2022-08-01T13:20:30;6.82;;;2.70;;
11655;SDS011;5884;43.618;1.438;2022-08-01T13:23:10;3.92;;;3.33;;
11655;SDS011;5884;43.618;1.438;2022-08-01T13:25:50;3.72;;;3.10;;
11655;SDS011;5884;43.618;1.438;2022-08-01T13:28:21;8.65;;;3.35;;
11655;SDS011;5884;43.618;1.438;2022-08-01T13:30:55;5.40;;;3.33;;
11655;SDS011;5884;43.618;1.438;2022-08-01T13:33:26;7.82;;;3.03;;
11655;SDS011;5884;43.618;1.438;2022-08-01T13:36:05;3.60;;;3.30;;
11655;SDS011;5884;43.618;1.438;2022-08-01T13:38:32;3.92;;;2.80;;
11655;SDS011;5884;43.618;1.438;2022-08-01T13:41:18;3.53;;;3.20;;
11655;SDS011;5884;43.618;1.438;2022-08-01T13:43:46;4.45;;;2.85;;
11655;SDS011;5884;43.618;1.438;2022-08-01T13:46:13;6.10;;;3.38;;
11655;SDS011;5884;43.618;1.438;2022-08-01T13:48:40;8.52;;;3.78;;
11655;SDS011;5884;43.618;1.438;2022-08-01T13:51:08;8.90;;;3.78;;
11655;SDS011;5884;43.618;1.438;2022-08-01T13:53:35;4.82;;;3.50;;
11655;SDS011;5884;43.618;1.438;2022-08-01T13:56:02;4.72;;;3.20;;
11655;SDS011;5884;43.618;1.438;2022-08-01T13:58:31;5.72;;;3.55;;
11655;SDS011;5884;43.618;1.438;2022-08-01T14:00:58;7.55;;;3.10;;
11655;SDS011;5884;43.618;1.438;2022-08-01T14:03:26;5.35;;;2.85;;
11655;SDS011;5884;43.618;1.438;2022-08-01T14:05:53;5.00;;;2.90;;
11655;SDS011;5884;43.618;1.438;2022-08-01T14:08:20;3.78;;;2.80;;
11655;SDS011;5884;43.618;1.438;2022-08-01T14:10:47;5.10;;;3.17;;
11655;SDS011;5884;43.618;1.438;2022-08-01T14:13:14;6.53;;;3.50;;
11655;SDS011;5884;43.618;1.438;2022-08-01T14:15:43;4.70;;;2.67;;
11655;SDS011;5884;43.618;1.438;2022-08-01T14:18:10;5.03;;;3.08;;
11655;SDS011;5884;43.618;1.438;2022-08-01T14:20:38;4.40;;;3.20;;
11655;SDS011;5884;43.618;1.438;2022-08-01T14:23:05;4.85;;;3.13;;
11655;SDS011;5884;43.618;1.438;2022-08-01T14:25:33;2.97;;;2.67;;
11655;SDS011;5884;43.618;1.438;2022-08-01T14:28:00;4.32;;;2.80;;
11655;SDS011;5884;43.618;1.438;2022-08-01T14:30:27;4.65;;;2.53;;
11655;SDS011;5884;43.618;1.438;2022-08-01T14:32:56;4.80;;;2.90;;
11655;SDS011;5884;43.618;1.438;2022-08-01T14:35:23;4.93;;;2.90;;
11655;SDS011;5884;43.618;1.438;2022-08-01T14:37:50;4.45;;;2.95;;
11655;SDS011;5884;43.618;1.438;2022-08-01T14:40:18;3.58;;;2.72;;
11655;SDS011;5884;43.618;1.438;2022-08-01T14:42:46;4.28;;;2.53;;
11655;SDS011;5884;43.618;1.438;2022-08-01T14:45:13;4.03;;;2.60;;
11655;SDS011;5884;43.618;1.438;2022-08-01T14:47:41;4.45;;;2.45;;
11655;SDS011;5884;43.618;1.438;2022-08-01T14:50:12;3.35;;;2.55;;
11655;SDS011;5884;43.618;1.438;2022-08-01T14:52:42;3.88;;;2.17;;
11655;SDS011;5884;43.618;1.438;2022-08-01T14:55:10;3.35;;;2.22;;
11655;SDS011;5884;43.618;1.438;2022-08-01T14:57:38;5.78;;;2.42;;
11655;SDS011;5884;43.618;1.438;2022-08-01T15:00:07;3.30;;;2.58;;
11655;SDS011;5884;43.618;1.438;2022-08-01T15:02:36;3.97;;;2.58;;
11655;SDS011;5884;43.618;1.438;2022-08-01T15:05:04;5.13;;;2.88;;
11655;SDS011;5884;43.618;1.438;2022-08-01T15:07:34;3.92;;;2.20;;
11655;SDS011;5884;43.618;1.438;2022-08-01T15:10:02;6.22;;;2.22;;
11655;SDS011;5884;43.618;1.438;2022-08-01T15:12:31;3.15;;;2.20;;
11655;SDS011;5884;43.618;1.438;2022-08-01T15:14:58;6.70;;;2.30;;
11655;SDS011;5884;43.618;1.438;2022-08-01T15:17:26;3.40;;;2.38;;
11655;SDS011;5884;43.618;1.438;2022-08-01T15:19:57;2.58;;;2.35;;
11655;SDS011;5884;43.618;1.438;2022-08-01T15:22:26;2.42;;;1.92;;
11655;SDS011;5884;43.618;1.438;2022-08-01T15:24:56;4.43;;;2.33;;
11655;SDS011;5884;43.618;1.438;2022-08-01T15:27:25;3.42;;;2.20;;
11655;SDS011;5884;43.618;1.438;2022-08-01T15:29:54;2.65;;;2.05;;
11655;SDS011;5884;43.618;1.438;2022-08-01T15:32:22;3.03;;;2.13;;
11655;SDS011;5884;43.618;1.438;2022-08-01T15:34:50;5.10;;;2.08;;
11655;SDS011;5884;43.618;1.438;2022-08-01T15:37:18;4.22;;;2.33;;
11655;SDS011;5884;43.618;1.438;2022-08-01T15:39:45;3.15;;;2.17;;
11655;SDS011;5884;43.618;1.438;2022-08-01T15:42:14;4.13;;;2.25;;
11655;SDS011;5884;43.618;1.438;2022-08-01T15:44:44;3.45;;;2.30;;
11655;SDS011;5884;43.618;1.438;2022-08-01T15:47:11;3.75;;;2.10;;
11655;SDS011;5884;43.618;1.438;2022-08-01T15:49:40;2.42;;;1.70;;
11655;SDS011;5884;43.618;1.438;2022-08-01T15:52:08;4.60;;;1.95;;
11655;SDS011;5884;43.618;1.438;2022-08-01T15:54:35;2.60;;;2.38;;
11655;SDS011;5884;43.618;1.438;2022-08-01T15:57:05;3.03;;;2.50;;
11655;SDS011;5884;43.618;1.438;2022-08-01T15:59:34;3.47;;;2.50;;
11655;SDS011;5884;43.618;1.438;2022-08-01T16:02:02;4.32;;;2.50;;
11655;SDS011;5884;43.618;1.438;2022-08-01T16:04:29;7.65;;;2.40;;
11655;SDS011;5884;43.618;1.438;2022-08-01T16:06:56;4.95;;;2.53;;
11655;SDS011;5884;43.618;1.438;2022-08-01T16:09:23;3.55;;;2.33;;
11655;SDS011;5884;43.618;1.438;2022-08-01T16:11:51;2.58;;;2.33;;
11655;SDS011;5884;43.618;1.438;2022-08-01T16:14:18;5.15;;;2.50;;
11655;SDS011;5884;43.618;1.438;2022-08-01T16:16:48;3.95;;;2.53;;
11655;SDS011;5884;43.618;1.438;2022-08-01T16:19:15;4.70;;;2.45;;
11655;SDS011;5884;43.618;1.438;2022-08-01T16:21:42;4.22;;;2.70;;
11655;SDS011;5884;43.618;1.438;2022-08-01T16:24:10;5.43;;;2.25;;
11655;SDS011;5884;43.618;1.438;2022-08-01T16:26:37;5.78;;;2.22;;
11655;SDS011;5884;43.618;1.438;2022-08-01T16:29:04;4.90;;;1.92;;
11655;SDS011;5884;43.618;1.438;2022-08-01T16:31:31;2.70;;;2.25;;
11655;SDS011;5884;43.618;1.438;2022-08-01T16:34:00;3.35;;;2.03;;
11655;SDS011;5884;43.618;1.438;2022-08-01T16:36:28;3.08;;;2.28;;
11655;SDS011;5884;43.618;1.438;2022-08-01T16:38:55;6.28;;;2.50;;
11655;SDS011;5884;43.618;1.438;2022-08-01T16:41:22;5.68;;;2.05;;
11655;SDS011;5884;43.618;1.438;2022-08-01T16:43:49;2.88;;;2.30;;
11655;SDS011;5884;43.618;1.438;2022-08-01T16:46:16;3.55;;;2.00;;
11655;SDS011;5884;43.618;1.438;2022-08-01T16:48:44;4.53;;;2.10;;
11655;SDS011;5884;43.618;1.438;2022-08-01T16:51:12;4.32;;;2.38;;
11655;SDS011;5884;43.618;1.438;2022-08-01T16:53:39;4.20;;;2.30;;
11655;SDS011;5884;43.618;1.438;2022-08-01T16:56:06;4.90;;;2.38;;
11655;SDS011;5884;43.618;1.438;2022-08-01T16:58:34;3.03;;;2.00;;
11655;SDS011;5884;43.618;1.438;2022-08-01T17:01:01;4.53;;;2.10;;
11655;SDS011;5884;43.618;1.438;2022-08-01T17:03:28;2.58;;;2.20;;
11655;SDS011;5884;43.618;1.438;2022-08-01T17:05:55;2.30;;;2.10;;
11655;SDS011;5884;43.618;1.438;2022-08-01T17:08:24;4.80;;;1.92;;
11655;SDS011;5884;43.618;1.438;2022-08-01T17:10:51;2.22;;;2.03;;
11655;SDS011;5884;43.618;1.438;2022-08-01T17:13:18;4.30;;;1.92;;
11655;SDS011;5884;43.618;1.438;2022-08-01T17:15:47;1.85;;;1.60;;
11655;SDS011;5884;43.618;1.438;2022-08-01T17:18:14;1.85;;;1.70;;
11655;SDS011;5884;43.618;1.438;2022-08-01T17:20:42;4.10;;;2.10;;
11655;SDS011;5884;43.618;1.438;2022-08-01T17:23:11;3.45;;;1.90;;
11655;SDS011;5884;43.618;1.438;2022-08-01T17:25:40;3.00;;;1.63;;
11655;SDS011;5884;43.618;1.438;2022-08-01T17:28:07;3.83;;;1.70;;
11655;SDS011;5884;43.618;1.438;2022-08-01T17:30:34;3.88;;;1.70;;
11655;SDS011;5884;43.618;1.438;2022-08-01T17:33:04;4.05;;;1.67;;
11655;SDS011;5884;43.618;1.438;2022-08-01T17:35:31;3.88;;;1.63;;
11655;SDS011;5884;43.618;1.438;2022-08-01T17:37:58;3.97;;;1.80;;
11655;SDS011;5884;43.618;1.438;2022-08-01T17:40:26;2.80;;;2.10;;
11655;SDS011;5884;43.618;1.438;2022-08-01T17:42:55;2.97;;;1.98;;
11655;SDS011;5884;43.618;1.438;2022-08-01T17:45:22;4.07;;;2.35;;
11655;SDS011;5884;43.618;1.438;2022-08-01T17:47:49;2.92;;;2.17;;
11655;SDS011;5884;43.618;1.438;2022-08-01T17:50:16;5.78;;;2.30;;
11655;SDS011;5884;43.618;1.438;2022-08-01T17:52:44;5.13;;;2.28;;
11655;SDS011;5884;43.618;1.438;2022-08-01T17:55:11;3.75;;;2.55;;
11655;SDS011;5884;43.618;1.438;2022-08-01T17:57:38;4.13;;;2.35;;
11655;SDS011;5884;43.618;1.438;2022-08-01T18:00:08;6.22;;;4.60;;
11655;SDS011;5884;43.618;1.438;2022-08-01T18:02:40;3.60;;;2.53;;
11655;SDS011;5884;43.618;1.438;2022-08-01T18:05:07;3.70;;;2.63;;
11655;SDS011;5884;43.618;1.438;2022-08-01T18:07:35;3.63;;;1.90;;
11655;SDS011;5884;43.618;1.438;2022-08-01T18:10:02;3.45;;;2.30;;
11655;SDS011;5884;43.618;1.438;2022-08-01T18:12:31;4.55;;;2.33;;
11655;SDS011;5884;43.618;1.438;2022-08-01T18:14:58;3.47;;;2.00;;
11655;SDS011;5884;43.618;1.438;2022-08-01T18:17:30;4.50;;;1.75;;
11655;SDS011;5884;43.618;1.438;2022-08-01T18:19:57;2.20;;;1.77;;
11655;SDS011;5884;43.618;1.438;2022-08-01T18:22:24;2.63;;;2.08;;
11655;SDS011;5884;43.618;1.438;2022-08-01T18:24:51;3.15;;;1.98;;
11655;SDS011;5884;43.618;1.438;2022-08-01T18:27:19;5.18;;;2.50;;
11655;SDS011;5884;43.618;1.438;2022-08-01T18:29:46;4.75;;;2.15;;
11655;SDS011;5884;43.618;1.438;2022-08-01T18:32:13;3.42;;;2.17;;
11655;SDS011;5884;43.618;1.438;2022-08-01T18:34:42;3.63;;;1.88;;
11655;SDS011;5884;43.618;1.438;2022-08-01T18:37:09;3.88;;;2.25;;
11655;SDS011;5884;43.618;1.438;2022-08-01T18:39:37;6.95;;;2.10;;
11655;SDS011;5884;43.618;1.438;2022-08-01T18:42:04;4.20;;;1.98;;
11655;SDS011;5884;43.618;1.438;2022-08-01T18:44:32;5.57;;;1.90;;
11655;SDS011;5884;43.618;1.438;2022-08-01T18:47:00;3.72;;;2.10;;
11655;SDS011;5884;43.618;1.438;2022-08-01T18:49:28;7.43;;;3.50;;
11655;SDS011;5884;43.618;1.438;2022-08-01T18:51:56;2.78;;;2.25;;
11655;SDS011;5884;43.618;1.438;2022-08-01T18:54:24;4.00;;;2.50;;
11655;SDS011;5884;43.618;1.438;2022-08-01T18:56:51;4.53;;;2.13;;
11655;SDS011;5884;43.618;1.438;2022-08-01T18:59:19;3.53;;;2.33;;
11655;SDS011;5884;43.618;1.438;2022-08-01T19:01:46;2.50;;;2.30;;
11655;SDS011;5884;43.618;1.438;2022-08-01T19:04:14;4.22;;;2.50;;
11655;SDS011;5884;43.618;1.438;2022-08-01T19:06:41;4.85;;;3.45;;
11655;SDS011;5884;43.618;1.438;2022-08-01T19:09:09;5.22;;;2.60;;
11655;SDS011;5884;43.618;1.438;2022-08-01T19:11:37;6.60;;;3.08;;
11655;SDS011;5884;43.618;1.438;2022-08-01T19:14:04;6.72;;;4.72;;
11655;SDS011;5884;43.618;1.438;2022-08-01T19:16:32;4.13;;;3.30;;
11655;SDS011;5884;43.618;1.438;2022-08-01T19:19:02;5.47;;;2.90;;
11655;SDS011;5884;43.618;1.438;2022-08-01T19:21:30;4.15;;;2.40;;
11655;SDS011;5884;43.618;1.438;2022-08-01T19:23:58;5.47;;;2.55;;
11655;SDS011;5884;43.618;1.438;2022-08-01T19:26:47;2.13;;;1.90;;
11655;SDS011;5884;43.618;1.438;2022-08-01T19:29:18;2.50;;;2.30;;
11655;SDS011;5884;43.618;1.438;2022-08-01T19:31:47;3.45;;;1.98;;
11655;SDS011;5884;43.618;1.438;2022-08-01T19:34:17;3.15;;;2.72;;
11655;SDS011;5884;43.618;1.438;2022-08-01T19:36:47;2.75;;;2.33;;
11655;SDS011;5884;43.618;1.438;2022-08-01T19:39:17;3.00;;;2.67;;
11655;SDS011;5884;43.618;1.438;2022-08-01T19:41:49;2.88;;;2.50;;
11655;SDS011;5884;43.618;1.438;2022-08-01T19:44:18;4.65;;;2.42;;
11655;SDS011;5884;43.618;1.438;2022-08-01T19:46:48;9.10;;;2.33;;
11655;SDS011;5884;43.618;1.438;2022-08-01T19:49:17;4.25;;;2.60;;
11655;SDS011;5884;43.618;1.438;2022-08-01T19:51:47;4.13;;;3.30;;
11655;SDS011;5884;43.618;1.438;2022-08-01T19:54:16;7.22;;;3.35;;
11655;SDS011;5884;43.618;1.438;2022-08-01T19:56:46;3.58;;;2.63;;
11655;SDS011;5884;43.618;1.438;2022-08-01T19:59:16;6.88;;;2.97;;
11655;SDS011;5884;43.618;1.438;2022-08-01T20:01:45;5.93;;;3.00;;
11655;SDS011;5884;43.618;1.438;2022-08-01T20:04:15;5.07;;;2.95;;
11655;SDS011;5884;43.618;1.438;2022-08-01T20:06:44;3.85;;;3.20;;